Time;durP1;ratioP1;P1;durP2;ratioP2;P2;SDS_P1;SDS_P2;PMS_P1;PMS_P2;Temp;Humidity;BMP_temperature;BMP_pressure;BME280_temperature;BME280_humidity;BME280_pressure;Samples;Min_cycle;Max_cycle;Signal;HPM_P1;HPM_P2
2022/07/07 00:02:12;;;;;;;9.15;4.80;;;;;;;;;;5015125;28;20069;-77
2022/07/07 00:04:38;;;;;;;8.98;5.47;;;;;;;;;;5014410;28;20060;-78
2022/07/07 00:07:04;;;;;;;7.72;4.78;;;;;;;;;;5014658;28;20057;-77
2022/07/07 00:09:30;;;;;;;7.53;4.05;;;;;;;;;;5016845;28;20042;-72
2022/07/07 00:11:58;;;;;;;8.93;4.05;;;;;;;;;;5015150;28;20049;-73
2022/07/07 00:14:24;;;;;;;10.63;4.10;;;;;;;;;;5014237;28;20046;-73
2022/07/07 00:16:50;;;;;;;7.53;4.20;;;;;;;;;;5013654;28;20053;-72
2022/07/07 00:19:17;;;;;;;7.35;3.80;;;;;;;;;;5014210;28;20049;-78
2022/07/07 00:21:43;;;;;;;7.05;3.25;;;;;;;;;;5015070;28;20099;-77
2022/07/07 00:24:09;;;;;;;7.45;3.40;;;;;;;;;;5032179;28;20034;-78
2022/07/07 00:26:35;;;;;;;6.80;3.30;;;;;;;;;;5013694;28;20037;-78
2022/07/07 00:29:01;;;;;;;7.20;2.80;;;;;;;;;;5013478;28;20537;-77
2022/07/07 00:31:27;;;;;;;6.78;2.80;;;;;;;;;;5014949;28;20048;-74
2022/07/07 00:33:54;;;;;;;5.15;2.30;;;;;;;;;;5000832;28;20422;-78
2022/07/07 00:36:20;;;;;;;4.65;2.28;;;;;;;;;;5017464;28;20044;-78
2022/07/07 00:38:46;;;;;;;5.57;2.35;;;;;;;;;;5017108;28;20042;-73
2022/07/07 00:41:12;;;;;;;6.40;2.08;;;;;;;;;;5021647;28;20116;-74
2022/07/07 00:43:39;;;;;;;6.45;2.28;;;;;;;;;;5006651;28;20041;-73
2022/07/07 00:46:07;;;;;;;7.93;2.22;;;;;;;;;;5035477;28;20083;-76
2022/07/07 00:48:33;;;;;;;7.25;2.20;;;;;;;;;;5017360;28;20052;-71
2022/07/07 00:51:00;;;;;;;7.78;2.58;;;;;;;;;;5033348;28;20112;-76
2022/07/07 00:53:26;;;;;;;10.30;2.83;;;;;;;;;;5035314;28;20111;-76
2022/07/07 00:55:52;;;;;;;9.43;2.80;;;;;;;;;;5042842;28;20485;-76
2022/07/07 00:58:18;;;;;;;8.23;2.20;;;;;;;;;;5017863;28;20454;-75
2022/07/07 01:00:44;;;;;;;9.55;2.50;;;;;;;;;;5035311;28;20041;-77
2022/07/07 01:03:10;;;;;;;7.80;2.35;;;;;;;;;;5033413;28;20034;-74
2022/07/07 01:05:37;;;;;;;9.98;2.58;;;;;;;;;;5017148;28;20048;-79
2022/07/07 01:08:04;;;;;;;7.78;2.58;;;;;;;;;;5017089;28;20037;-76
2022/07/07 01:10:31;;;;;;;6.40;2.70;;;;;;;;;;5017117;28;20088;-76
2022/07/07 01:13:01;;;;;;;10.27;3.20;;;;;;;;;;5032884;28;20041;-78
2022/07/07 01:15:27;;;;;;;7.85;3.33;;;;;;;;;;5017623;28;20037;-78
2022/07/07 01:17:54;;;;;;;8.52;3.30;;;;;;;;;;5033373;28;20057;-78
2022/07/07 01:20:20;;;;;;;8.43;3.53;;;;;;;;;;5016894;28;20036;-78
2022/07/07 01:22:53;;;;;;;11.38;3.47;;;;;;;;;;5017152;28;20402;-75
2022/07/07 01:25:19;;;;;;;9.90;3.65;;;;;;;;;;5017075;28;20172;-76
2022/07/07 01:27:46;;;;;;;6.53;3.83;;;;;;;;;;5016686;28;20057;-74
2022/07/07 01:30:12;;;;;;;8.45;4.20;;;;;;;;;;5017127;28;20076;-77
2022/07/07 01:32:38;;;;;;;6.35;4.10;;;;;;;;;;5034368;28;20056;-78
2022/07/07 01:35:05;;;;;;;13.52;4.32;;;;;;;;;;5047874;28;20048;-77
2022/07/07 01:37:33;;;;;;;7.35;4.32;;;;;;;;;;5017826;28;20044;-76
2022/07/07 01:39:59;;;;;;;6.18;4.20;;;;;;;;;;5020811;28;20184;-79
2022/07/07 01:42:26;;;;;;;9.10;4.57;;;;;;;;;;5012064;28;20046;-77
2022/07/07 01:44:52;;;;;;;7.00;4.25;;;;;;;;;;5032497;28;20037;-76
2022/07/07 01:47:19;;;;;;;8.45;4.47;;;;;;;;;;5017387;28;20515;-79
2022/07/07 01:49:45;;;;;;;7.70;4.30;;;;;;;;;;5034340;28;20041;-77
2022/07/07 01:52:12;;;;;;;8.88;4.72;;;;;;;;;;5033102;28;20053;-76
2022/07/07 01:54:39;;;;;;;7.75;3.78;;;;;;;;;;5033690;28;20079;-76
2022/07/07 01:57:06;;;;;;;9.05;4.28;;;;;;;;;;5016442;28;20099;-75
2022/07/07 01:59:32;;;;;;;8.77;4.30;;;;;;;;;;5031765;28;20449;-75
2022/07/07 02:01:58;;;;;;;7.95;4.15;;;;;;;;;;5029701;28;20042;-75
2022/07/07 02:04:24;;;;;;;10.90;4.38;;;;;;;;;;5013024;28;20041;-74
2022/07/07 02:06:50;;;;;;;6.28;3.95;;;;;;;;;;5020090;28;20053;-71
2022/07/07 02:09:16;;;;;;;8.35;3.92;;;;;;;;;;5023646;28;20037;-76
2022/07/07 02:11:43;;;;;;;6.35;3.85;;;;;;;;;;5013615;28;20411;-77
2022/07/07 02:14:09;;;;;;;7.75;3.85;;;;;;;;;;5042482;28;20406;-77
2022/07/07 02:16:36;;;;;;;8.15;3.70;;;;;;;;;;5008996;28;20045;-77
2022/07/07 02:19:03;;;;;;;9.05;4.10;;;;;;;;;;5016019;28;20060;-77
2022/07/07 02:21:30;;;;;;;8.73;4.45;;;;;;;;;;5033427;28;20081;-77
2022/07/07 02:23:57;;;;;;;8.93;4.15;;;;;;;;;;4998961;28;20041;-78
2022/07/07 02:26:26;;;;;;;11.00;4.00;;;;;;;;;;5018567;28;20382;-76
2022/07/07 02:28:53;;;;;;;15.25;5.38;;;;;;;;;;5039235;28;20132;-75
2022/07/07 02:31:19;;;;;;;10.07;4.22;;;;;;;;;;5015545;28;20413;-74
2022/07/07 02:33:45;;;;;;;10.00;3.90;;;;;;;;;;4999655;28;20045;-73
2022/07/07 02:36:12;;;;;;;8.73;3.38;;;;;;;;;;5014433;28;20478;-74
2022/07/07 02:38:38;;;;;;;10.15;2.92;;;;;;;;;;5023259;28;20470;-74
2022/07/07 02:41:05;;;;;;;8.90;2.80;;;;;;;;;;4999164;28;20120;-78
2022/07/07 02:43:31;;;;;;;8.10;2.65;;;;;;;;;;4999607;28;20044;-78
2022/07/07 02:45:57;;;;;;;5.28;2.45;;;;;;;;;;4999269;28;20124;-73
2022/07/07 02:48:24;;;;;;;9.35;2.55;;;;;;;;;;5026984;28;20037;-79
2022/07/07 02:50:51;;;;;;;7.97;2.45;;;;;;;;;;4988033;28;20038;-79
2022/07/07 02:53:18;;;;;;;10.63;2.38;;;;;;;;;;5032541;28;20079;-78
2022/07/07 02:55:44;;;;;;;10.75;2.47;;;;;;;;;;5005300;28;20050;-79
2022/07/07 02:58:11;;;;;;;10.40;2.40;;;;;;;;;;5001578;28;20037;-77
2022/07/07 03:00:38;;;;;;;10.73;2.55;;;;;;;;;;4999877;28;20108;-74
2022/07/07 03:03:05;;;;;;;6.25;2.05;;;;;;;;;;4982264;28;20042;-73
2022/07/07 03:05:32;;;;;;;9.00;2.33;;;;;;;;;;5011164;28;20541;-74
2022/07/07 03:07:59;;;;;;;10.95;2.60;;;;;;;;;;5013611;28;20497;-74
2022/07/07 03:10:25;;;;;;;9.48;2.50;;;;;;;;;;5021159;28;20061;-73
2022/07/07 03:12:52;;;;;;;12.50;2.72;;;;;;;;;;5032847;28;20064;-72
2022/07/07 03:15:18;;;;;;;7.15;2.47;;;;;;;;;;5011776;28;20084;-75
2022/07/07 03:17:45;;;;;;;13.15;2.45;;;;;;;;;;5017016;28;20022;-74
2022/07/07 03:20:11;;;;;;;8.02;2.30;;;;;;;;;;5000933;28;20051;-75
2022/07/07 03:22:41;;;;;;;11.25;2.90;;;;;;;;;;5018285;28;20087;-76
2022/07/07 03:25:07;;;;;;;9.95;3.13;;;;;;;;;;4999383;28;20069;-75
2022/07/07 03:27:34;;;;;;;10.45;2.75;;;;;;;;;;5016189;28;20401;-75
2022/07/07 03:30:00;;;;;;;11.50;3.13;;;;;;;;;;5015893;28;20041;-75
2022/07/07 03:32:26;;;;;;;8.82;2.30;;;;;;;;;;5014838;28;20037;-78
2022/07/07 03:34:52;;;;;;;12.63;2.42;;;;;;;;;;5005429;28;20179;-80
2022/07/07 03:37:18;;;;;;;9.30;2.38;;;;;;;;;;5024612;28;20052;-79
2022/07/07 03:39:44;;;;;;;14.90;2.40;;;;;;;;;;5021501;28;20071;-83
2022/07/07 03:42:10;;;;;;;12.35;2.22;;;;;;;;;;5004419;28;20084;-79
2022/07/07 03:44:36;;;;;;;12.68;1.85;;;;;;;;;;5014633;28;20033;-82
2022/07/07 03:47:03;;;;;;;9.43;1.75;;;;;;;;;;5021128;28;20095;-81
2022/07/07 03:49:30;;;;;;;9.48;1.75;;;;;;;;;;5016226;28;20034;-78
2022/07/07 03:51:56;;;;;;;8.18;1.20;;;;;;;;;;5020499;28;20049;-78
2022/07/07 03:54:22;;;;;;;7.22;1.40;;;;;;;;;;5014262;28;20546;-74
2022/07/07 03:56:48;;;;;;;7.55;1.50;;;;;;;;;;5015843;28;20084;-82
2022/07/07 03:59:14;;;;;;;8.85;1.23;;;;;;;;;;5014231;28;20096;-78
2022/07/07 04:01:44;;;;;;;8.63;1.23;;;;;;;;;;5007575;28;20093;-76
2022/07/07 04:04:11;;;;;;;5.97;1.38;;;;;;;;;;5035731;28;20394;-74
2022/07/07 04:06:37;;;;;;;5.40;0.95;;;;;;;;;;5029309;28;20037;-81
2022/07/07 04:09:03;;;;;;;7.57;1.50;;;;;;;;;;5031944;28;20041;-81
2022/07/07 04:11:29;;;;;;;6.97;1.27;;;;;;;;;;5049571;28;20041;-79
2022/07/07 04:13:55;;;;;;;5.55;1.00;;;;;;;;;;5036244;28;20083;-73
2022/07/07 04:16:21;;;;;;;7.50;1.10;;;;;;;;;;5034843;28;20517;-81
2022/07/07 04:18:47;;;;;;;6.20;1.00;;;;;;;;;;5034008;28;20448;-73
2022/07/07 04:21:13;;;;;;;5.40;1.20;;;;;;;;;;5035685;28;20056;-73
2022/07/07 04:23:39;;;;;;;6.80;1.15;;;;;;;;;;5016987;28;20073;-79
2022/07/07 04:26:05;;;;;;;7.25;1.30;;;;;;;;;;5001560;28;20048;-72
2022/07/07 04:28:31;;;;;;;7.47;1.40;;;;;;;;;;5018261;28;20192;-78
2022/07/07 04:30:58;;;;;;;5.60;1.02;;;;;;;;;;5034258;28;20517;-81
2022/07/07 04:33:24;;;;;;;6.05;1.30;;;;;;;;;;5008610;28;20083;-76
2022/07/07 04:35:50;;;;;;;6.35;1.20;;;;;;;;;;5017790;28;20041;-72
2022/07/07 04:38:16;;;;;;;6.55;0.98;;;;;;;;;;5001063;28;20096;-72
2022/07/07 04:40:42;;;;;;;4.40;1.00;;;;;;;;;;5031028;28;20493;-74
2022/07/07 04:43:08;;;;;;;5.40;1.08;;;;;;;;;;5018370;28;20100;-71
2022/07/07 04:45:35;;;;;;;8.13;1.10;;;;;;;;;;5017321;28;20053;-72
2022/07/07 04:48:01;;;;;;;6.30;0.93;;;;;;;;;;5001493;28;20092;-80
2022/07/07 04:50:27;;;;;;;10.07;1.40;;;;;;;;;;5010064;28;20393;-77
2022/07/07 04:52:54;;;;;;;8.27;1.20;;;;;;;;;;5019025;28;20108;-71
2022/07/07 04:55:20;;;;;;;8.80;1.23;;;;;;;;;;5035537;28;20053;-72
2022/07/07 04:57:46;;;;;;;10.45;1.50;;;;;;;;;;5013261;28;20045;-71
2022/07/07 05:00:12;;;;;;;8.40;1.30;;;;;;;;;;5034568;28;20033;-73
2022/07/07 05:02:38;;;;;;;6.63;1.30;;;;;;;;;;5015045;28;20159;-72
2022/07/07 05:05:06;;;;;;;6.05;1.20;;;;;;;;;;5021189;28;20180;-71
2022/07/07 05:07:32;;;;;;;6.35;1.23;;;;;;;;;;5015649;28;20037;-72
2022/07/07 05:09:58;;;;;;;7.10;1.30;;;;;;;;;;5026940;28;20052;-73
2022/07/07 05:12:25;;;;;;;7.07;1.63;;;;;;;;;;5024845;28;20112;-72
2022/07/07 05:14:51;;;;;;;9.10;1.50;;;;;;;;;;5026141;28;20097;-73
2022/07/07 05:17:17;;;;;;;12.85;1.67;;;;;;;;;;5030614;28;20425;-73
2022/07/07 05:19:43;;;;;;;6.68;1.17;;;;;;;;;;5018460;28;20133;-74
2022/07/07 05:22:09;;;;;;;9.02;1.55;;;;;;;;;;5032753;28;20553;-78
2022/07/07 05:24:35;;;;;;;9.77;1.42;;;;;;;;;;5048951;28;20099;-73
2022/07/07 05:27:01;;;;;;;8.27;1.20;;;;;;;;;;5003264;28;20037;-76
2022/07/07 05:29:28;;;;;;;8.38;1.50;;;;;;;;;;4996679;28;20124;-77
2022/07/07 05:31:54;;;;;;;6.40;1.42;;;;;;;;;;5009943;28;20041;-79
2022/07/07 05:34:20;;;;;;;5.20;1.20;;;;;;;;;;5005471;28;20036;-79
2022/07/07 05:36:46;;;;;;;9.32;1.45;;;;;;;;;;5008099;28;20120;-77
2022/07/07 05:39:13;;;;;;;7.88;1.13;;;;;;;;;;5033645;28;20482;-70
2022/07/07 05:41:39;;;;;;;6.07;1.10;;;;;;;;;;5016030;28;20049;-71
2022/07/07 05:44:06;;;;;;;8.63;1.40;;;;;;;;;;5016210;28;20033;-70
2022/07/07 05:46:32;;;;;;;10.73;1.80;;;;;;;;;;5000246;28;20033;-71
2022/07/07 05:48:58;;;;;;;8.90;1.40;;;;;;;;;;5016244;28;20049;-73
2022/07/07 05:51:24;;;;;;;7.40;1.27;;;;;;;;;;5020341;28;20406;-70
2022/07/07 05:53:50;;;;;;;6.93;1.25;;;;;;;;;;5024596;28;20126;-70
2022/07/07 05:56:16;;;;;;;10.02;1.13;;;;;;;;;;5017772;28;20045;-71
2022/07/07 05:58:42;;;;;;;10.15;1.38;;;;;;;;;;5008735;28;20573;-78
2022/07/07 06:01:08;;;;;;;9.02;1.60;;;;;;;;;;5015863;28;20135;-78
2022/07/07 06:03:34;;;;;;;9.02;1.40;;;;;;;;;;5014253;28;20438;-74
2022/07/07 06:06:00;;;;;;;6.63;1.30;;;;;;;;;;5014593;28;20073;-79
2022/07/07 06:08:28;;;;;;;8.00;1.23;;;;;;;;;;5017635;28;20064;-71
2022/07/07 06:10:54;;;;;;;7.60;1.30;;;;;;;;;;5014593;28;20128;-74
2022/07/07 06:13:20;;;;;;;4.85;1.08;;;;;;;;;;5031768;28;20045;-71
2022/07/07 06:15:46;;;;;;;5.15;1.20;;;;;;;;;;5014088;28;20445;-70
2022/07/07 06:18:12;;;;;;;4.65;1.08;;;;;;;;;;5021001;28;20068;-74
2022/07/07 06:20:38;;;;;;;3.58;0.90;;;;;;;;;;5000227;28;20067;-74
2022/07/07 06:23:04;;;;;;;4.90;1.00;;;;;;;;;;5015437;28;20079;-74
2022/07/07 06:25:31;;;;;;;6.45;0.90;;;;;;;;;;4999181;28;20091;-74
2022/07/07 06:27:57;;;;;;;5.55;1.00;;;;;;;;;;5001410;28;20049;-76
2022/07/07 06:30:23;;;;;;;7.93;0.98;;;;;;;;;;5024138;28;20070;-75
2022/07/07 06:32:49;;;;;;;6.47;1.00;;;;;;;;;;5027163;28;20092;-72
2022/07/07 06:35:15;;;;;;;7.55;1.35;;;;;;;;;;5019757;28;20041;-73
2022/07/07 06:37:41;;;;;;;3.92;0.88;;;;;;;;;;5000148;28;20513;-75
2022/07/07 06:40:08;;;;;;;7.78;1.00;;;;;;;;;;5018552;28;20096;-80
2022/07/07 06:42:34;;;;;;;5.18;0.98;;;;;;;;;;5021110;28;20490;-77
2022/07/07 06:45:00;;;;;;;6.88;1.00;;;;;;;;;;5018266;28;20489;-72
2022/07/07 06:47:26;;;;;;;3.63;1.10;;;;;;;;;;5026501;28;20481;-77
2022/07/07 06:49:52;;;;;;;1.92;0.63;;;;;;;;;;5035615;28;20045;-79
2022/07/07 06:52:19;;;;;;;5.55;0.85;;;;;;;;;;5038530;28;20076;-79
2022/07/07 06:54:45;;;;;;;3.22;0.60;;;;;;;;;;5036341;28;20105;-76
2022/07/07 06:57:11;;;;;;;7.45;0.82;;;;;;;;;;5010459;28;20040;-78
2022/07/07 06:59:38;;;;;;;4.63;0.70;;;;;;;;;;5020167;28;20033;-81
2022/07/07 07:02:04;;;;;;;3.90;0.80;;;;;;;;;;5019438;28;20052;-72
2022/07/07 07:04:31;;;;;;;3.10;0.95;;;;;;;;;;5002695;28;20422;-78
2022/07/07 07:06:58;;;;;;;4.95;0.98;;;;;;;;;;5032764;28;20108;-79
2022/07/07 07:09:24;;;;;;;4.38;0.88;;;;;;;;;;5020754;28;20385;-78
2022/07/07 07:11:50;;;;;;;6.03;1.20;;;;;;;;;;5016909;28;20041;-82
2022/07/07 07:14:16;;;;;;;3.70;0.77;;;;;;;;;;5016060;28;20568;-81
2022/07/07 07:16:42;;;;;;;4.13;0.80;;;;;;;;;;5017225;28;20044;-73
2022/07/07 07:19:08;;;;;;;4.55;0.80;;;;;;;;;;5016480;28;20041;-74
2022/07/07 07:21:35;;;;;;;3.20;0.80;;;;;;;;;;5001922;28;20045;-72
2022/07/07 07:24:01;;;;;;;3.58;0.70;;;;;;;;;;5011366;28;20095;-72
2022/07/07 07:26:27;;;;;;;2.50;0.60;;;;;;;;;;5005214;28;20044;-75
2022/07/07 07:28:53;;;;;;;3.30;0.47;;;;;;;;;;5013908;28;20585;-75
2022/07/07 07:31:19;;;;;;;2.50;0.65;;;;;;;;;;5015332;28;20481;-76
2022/07/07 07:33:47;;;;;;;2.50;0.60;;;;;;;;;;5013903;28;20037;-74
2022/07/07 07:36:13;;;;;;;3.70;1.10;;;;;;;;;;4998090;28;20049;-73
2022/07/07 07:38:40;;;;;;;2.50;0.77;;;;;;;;;;4997998;28;20045;-72
2022/07/07 07:41:06;;;;;;;4.95;1.20;;;;;;;;;;5014222;28;20514;-72
2022/07/07 07:43:32;;;;;;;3.92;0.88;;;;;;;;;;5045776;28;20029;-78
2022/07/07 07:45:58;;;;;;;4.70;0.80;;;;;;;;;;5019583;28;20034;-79
2022/07/07 07:48:25;;;;;;;4.90;0.80;;;;;;;;;;4998380;28;20033;-81
2022/07/07 07:50:51;;;;;;;5.18;1.08;;;;;;;;;;5028126;28;20532;-80
2022/07/07 07:53:17;;;;;;;5.63;1.13;;;;;;;;;;5009930;28;20129;-81
2022/07/07 07:55:44;;;;;;;3.95;1.20;;;;;;;;;;5026824;28;20509;-79
2022/07/07 07:58:10;;;;;;;5.07;1.30;;;;;;;;;;5030741;28;20044;-83
2022/07/07 08:00:36;;;;;;;5.10;1.00;;;;;;;;;;5020692;28;20045;-80
2022/07/07 08:03:03;;;;;;;8.20;1.80;;;;;;;;;;5025516;28;20379;-80
2022/07/07 08:05:30;;;;;;;6.18;1.23;;;;;;;;;;5031035;28;20041;-78
2022/07/07 08:08:05;;;;;;;3.80;0.80;;;;;;;;;;5027056;28;20120;-78
2022/07/07 08:10:32;;;;;;;4.70;1.00;;;;;;;;;;5019938;28;20037;-80
2022/07/07 08:12:58;;;;;;;3.25;0.65;;;;;;;;;;5018344;28;20061;-77
2022/07/07 08:15:24;;;;;;;3.40;0.90;;;;;;;;;;5005831;28;20052;-76
2022/07/07 08:17:52;;;;;;;3.80;1.08;;;;;;;;;;5028548;28;20041;-79
2022/07/07 08:20:18;;;;;;;4.30;0.80;;;;;;;;;;5048558;28;20047;-80
2022/07/07 08:22:44;;;;;;;3.63;0.80;;;;;;;;;;5014860;28;20053;-79
2022/07/07 08:25:10;;;;;;;3.95;0.90;;;;;;;;;;5011170;28;20490;-80
2022/07/07 08:27:36;;;;;;;4.72;1.20;;;;;;;;;;5012301;28;20040;-80
2022/07/07 08:30:05;;;;;;;5.78;0.90;;;;;;;;;;4980509;28;20049;-79
2022/07/07 08:32:31;;;;;;;5.30;1.20;;;;;;;;;;5003150;28;20046;-78
2022/07/07 08:34:57;;;;;;;3.92;1.00;;;;;;;;;;5003494;28;20398;-80
2022/07/07 08:37:56;;;;;;;3.90;0.90;;;;;;;;;;5015255;28;20121;-81
2022/07/07 08:40:37;;;;;;;6.45;1.00;;;;;;;;;;4974774;28;20053;-80
2022/07/07 08:43:03;;;;;;;3.80;0.73;;;;;;;;;;4994311;28;20403;-79
2022/07/07 08:45:30;;;;;;;4.30;1.17;;;;;;;;;;4991904;28;20038;-79
2022/07/07 08:47:56;;;;;;;3.33;0.80;;;;;;;;;;5009110;28;20069;-80
2022/07/07 08:50:22;;;;;;;8.02;2.63;;;;;;;;;;5002864;28;20093;-80
2022/07/07 08:52:52;;;;;;;5.03;1.20;;;;;;;;;;4993530;28;20045;-79
2022/07/07 08:55:21;;;;;;;6.85;1.50;;;;;;;;;;4995569;28;20069;-80
2022/07/07 08:57:47;;;;;;;6.90;1.70;;;;;;;;;;4997305;28;20041;-80
2022/07/07 09:00:13;;;;;;;4.70;1.45;;;;;;;;;;4998579;28;20384;-79
2022/07/07 09:02:39;;;;;;;5.18;1.52;;;;;;;;;;4991895;28;20491;-80
2022/07/07 09:05:06;;;;;;;8.00;1.33;;;;;;;;;;4996565;28;20395;-81
2022/07/07 09:07:45;;;;;;;5.80;1.38;;;;;;;;;;4986456;28;20128;-76
2022/07/07 09:10:11;;;;;;;3.63;0.95;;;;;;;;;;4996695;28;20045;-79
2022/07/07 09:12:37;;;;;;;4.20;1.00;;;;;;;;;;5015217;28;20042;-81
2022/07/07 09:15:04;;;;;;;6.05;1.50;;;;;;;;;;4996056;28;20042;-79
2022/07/07 09:17:31;;;;;;;5.90;1.58;;;;;;;;;;4997211;28;20074;-80
2022/07/07 09:20:05;;;;;;;6.03;1.38;;;;;;;;;;4998283;28;20042;-81
2022/07/07 09:22:41;;;;;;;4.88;1.77;;;;;;;;;;5006219;28;20045;-78
2022/07/07 09:25:08;;;;;;;5.20;2.28;;;;;;;;;;4995393;28;20041;-78
2022/07/07 09:27:48;;;;;;;5.55;1.40;;;;;;;;;;4995675;28;20085;-80
2022/07/07 09:30:23;;;;;;;4.88;1.10;;;;;;;;;;5010372;28;20086;-79
2022/07/07 09:32:49;;;;;;;5.43;1.30;;;;;;;;;;5023672;28;20494;-79
2022/07/07 09:38:14;;;;;;;5.78;1.17;;;;;;;;;;5024135;28;20069;-80
2022/07/07 09:40:52;;;;;;;4.93;1.10;;;;;;;;;;5018810;28;20064;-78
2022/07/07 09:43:18;;;;;;;5.65;1.35;;;;;;;;;;5008427;28;20069;-79
2022/07/07 09:46:03;;;;;;;5.05;1.17;;;;;;;;;;5012286;28;20041;-77
2022/07/07 09:48:29;;;;;;;5.25;1.20;;;;;;;;;;5012184;28;20144;-77
2022/07/07 09:51:10;;;;;;;5.03;1.10;;;;;;;;;;5036420;28;20040;-78
2022/07/07 09:53:51;;;;;;;4.28;0.80;;;;;;;;;;5018765;28;20047;-80
2022/07/07 09:56:18;;;;;;;10.10;1.00;;;;;;;;;;5018563;28;20136;-77
2022/07/07 09:58:44;;;;;;;4.55;1.00;;;;;;;;;;4999298;28;20034;-79
2022/07/07 10:01:11;;;;;;;4.50;0.80;;;;;;;;;;5022348;28;20037;-76
2022/07/07 10:03:37;;;;;;;3.28;0.80;;;;;;;;;;5016003;28;20037;-77
2022/07/07 10:06:04;;;;;;;2.58;0.80;;;;;;;;;;5030495;28;20045;-81
2022/07/07 10:08:31;;;;;;;3.58;0.82;;;;;;;;;;5000778;28;20065;-80
2022/07/07 10:10:57;;;;;;;4.15;1.00;;;;;;;;;;5018606;28;20109;-82
2022/07/07 10:13:23;;;;;;;5.03;1.20;;;;;;;;;;5018855;28;20115;-79
2022/07/07 10:15:50;;;;;;;3.00;0.88;;;;;;;;;;5016403;28;20485;-76
2022/07/07 10:18:16;;;;;;;2.47;0.80;;;;;;;;;;4991377;28;20573;-80
2022/07/07 10:20:42;;;;;;;2.47;0.68;;;;;;;;;;5005789;28;20490;-82
2022/07/07 10:23:08;;;;;;;5.38;0.98;;;;;;;;;;5012483;28;20041;-75
2022/07/07 10:25:34;;;;;;;2.65;0.70;;;;;;;;;;5010012;28;20498;-75
2022/07/07 10:28:00;;;;;;;3.80;1.00;;;;;;;;;;5018005;28;20131;-73
2022/07/07 10:30:31;;;;;;;3.80;0.73;;;;;;;;;;5016213;28;20045;-75
2022/07/07 10:32:57;;;;;;;5.80;1.23;;;;;;;;;;5024308;28;20052;-75
2022/07/07 10:35:25;;;;;;;5.60;1.02;;;;;;;;;;5035784;28;20419;-80
2022/07/07 10:37:52;;;;;;;2.55;0.90;;;;;;;;;;5030296;28;20371;-76
2022/07/07 10:40:19;;;;;;;6.03;1.00;;;;;;;;;;5042234;28;20596;-79
2022/07/07 10:42:54;;;;;;;5.88;1.45;;;;;;;;;;5025472;28;20053;-72
2022/07/07 10:45:22;;;;;;;6.65;1.33;;;;;;;;;;5015290;28;20176;-75
2022/07/07 10:47:48;;;;;;;6.15;1.50;;;;;;;;;;4983457;28;20073;-78
2022/07/07 10:50:34;;;;;;;6.25;1.45;;;;;;;;;;5017697;28;20030;-77
2022/07/07 10:53:00;;;;;;;5.60;1.40;;;;;;;;;;5026993;28;20105;-77
2022/07/07 10:55:59;;;;;;;10.70;1.70;;;;;;;;;;5030781;28;20368;-78
2022/07/07 10:58:54;;;;;;;8.85;1.75;;;;;;;;;;4992746;28;20049;-80
2022/07/07 11:01:21;;;;;;;8.05;1.65;;;;;;;;;;5027643;28;20103;-80
2022/07/07 11:03:47;;;;;;;10.15;1.50;;;;;;;;;;5005090;28;20064;-79
2022/07/07 11:06:16;;;;;;;12.27;1.70;;;;;;;;;;4998235;28;20371;-80
2022/07/07 11:08:43;;;;;;;7.50;1.40;;;;;;;;;;5003396;28;20401;-75
2022/07/07 11:11:09;;;;;;;9.23;1.70;;;;;;;;;;5012498;28;20104;-76
2022/07/07 11:13:43;;;;;;;9.43;1.77;;;;;;;;;;5029037;28;20112;-73
2022/07/07 11:16:11;;;;;;;9.07;2.00;;;;;;;;;;5039504;28;20180;-77
2022/07/07 11:18:37;;;;;;;14.18;2.08;;;;;;;;;;5029049;28;20056;-80
2022/07/07 11:21:05;;;;;;;11.85;2.47;;;;;;;;;;5022575;28;20060;-79
2022/07/07 11:23:48;;;;;;;13.02;2.22;;;;;;;;;;5007467;28;20406;-81
2022/07/07 11:26:23;;;;;;;10.25;2.00;;;;;;;;;;5014422;28;20399;-76
2022/07/07 11:28:49;;;;;;;14.18;2.35;;;;;;;;;;5022763;28;20063;-74
2022/07/07 11:31:15;;;;;;;6.95;1.67;;;;;;;;;;4995274;28;20042;-77
2022/07/07 11:33:41;;;;;;;8.05;1.88;;;;;;;;;;4998881;28;20402;-79
2022/07/07 11:36:18;;;;;;;8.05;1.83;;;;;;;;;;5008453;28;20041;-79
2022/07/07 11:38:45;;;;;;;8.40;1.60;;;;;;;;;;4995289;28;20047;-74
2022/07/07 11:41:11;;;;;;;10.05;1.60;;;;;;;;;;4993397;28;20104;-71
2022/07/07 11:43:37;;;;;;;8.32;1.55;;;;;;;;;;4994928;28;20461;-73
2022/07/07 11:46:04;;;;;;;8.18;1.58;;;;;;;;;;4992203;28;20037;-81
2022/07/07 11:48:34;;;;;;;5.90;1.40;;;;;;;;;;4988383;28;20034;-73
2022/07/07 11:51:00;;;;;;;9.18;1.60;;;;;;;;;;5010471;28;20081;-74
2022/07/07 11:53:26;;;;;;;9.20;1.55;;;;;;;;;;4978553;28;20042;-74
2022/07/07 11:55:52;;;;;;;9.55;1.45;;;;;;;;;;5012987;28;20125;-79
2022/07/07 11:58:21;;;;;;;10.35;1.40;;;;;;;;;;5026689;28;20104;-76
2022/07/07 12:00:48;;;;;;;10.27;1.55;;;;;;;;;;5023401;28;20124;-72
2022/07/07 12:03:16;;;;;;;9.50;1.48;;;;;;;;;;4999304;28;20076;-73
2022/07/07 12:05:46;;;;;;;9.52;1.40;;;;;;;;;;5016523;28;20547;-74
2022/07/07 12:08:13;;;;;;;6.03;1.20;;;;;;;;;;5006360;28;20030;-77
2022/07/07 12:10:40;;;;;;;6.20;1.30;;;;;;;;;;4974382;28;20450;-76
2022/07/07 12:13:08;;;;;;;7.45;1.30;;;;;;;;;;4983217;28;20038;-73
2022/07/07 12:15:36;;;;;;;7.53;1.35;;;;;;;;;;5009977;28;20038;-73
2022/07/07 12:18:03;;;;;;;8.20;1.30;;;;;;;;;;5006080;28;20550;-73
2022/07/07 12:20:30;;;;;;;6.22;1.40;;;;;;;;;;4989787;28;20042;-78
2022/07/07 12:23:00;;;;;;;6.82;1.40;;;;;;;;;;5010419;28;20045;-79
2022/07/07 12:25:27;;;;;;;5.78;1.20;;;;;;;;;;4996922;28;20039;-79
2022/07/07 12:27:56;;;;;;;6.97;1.25;;;;;;;;;;5004301;28;20533;-78
2022/07/07 12:30:23;;;;;;;8.70;1.58;;;;;;;;;;5013103;28;20054;-82
2022/07/07 12:32:49;;;;;;;6.30;1.30;;;;;;;;;;5001794;28;20498;-76
2022/07/07 12:35:29;;;;;;;9.15;1.63;;;;;;;;;;5016217;28;20071;-73
2022/07/07 12:37:55;;;;;;;7.03;1.63;;;;;;;;;;5031153;28;20048;-72
2022/07/07 12:40:22;;;;;;;8.85;1.60;;;;;;;;;;5016498;28;20120;-72
2022/07/07 12:42:49;;;;;;;9.63;1.70;;;;;;;;;;5001325;28;20050;-73
2022/07/07 12:45:16;;;;;;;8.40;1.50;;;;;;;;;;5000833;28;20048;-71
2022/07/07 12:47:49;;;;;;;11.02;2.88;;;;;;;;;;5017071;28;20057;-74
2022/07/07 12:50:16;;;;;;;9.43;1.50;;;;;;;;;;5017228;28;20041;-74
2022/07/07 12:52:53;;;;;;;8.80;1.70;;;;;;;;;;5017633;28;20562;-81
2022/07/07 12:55:20;;;;;;;8.45;1.67;;;;;;;;;;5017624;28;20111;-78
2022/07/07 12:57:46;;;;;;;7.07;1.60;;;;;;;;;;5021039;28;20052;-82
2022/07/07 13:00:25;;;;;;;7.88;1.85;;;;;;;;;;5017411;28;20048;-79
2022/07/07 13:02:51;;;;;;;8.25;1.77;;;;;;;;;;5000841;28;20041;-72
2022/07/07 13:05:18;;;;;;;8.85;1.70;;;;;;;;;;5034854;28;20041;-72
2022/07/07 13:07:44;;;;;;;14.70;2.05;;;;;;;;;;5018682;28;20041;-79
2022/07/07 13:10:10;;;;;;;10.52;1.98;;;;;;;;;;5006265;28;20116;-73
2022/07/07 13:12:38;;;;;;;7.22;1.52;;;;;;;;;;5023051;28;20044;-73
2022/07/07 13:15:04;;;;;;;6.85;1.52;;;;;;;;;;5033941;28;20041;-73
2022/07/07 13:17:31;;;;;;;6.95;1.40;;;;;;;;;;5017031;28;20581;-74
2022/07/07 13:19:57;;;;;;;12.43;1.80;;;;;;;;;;5018947;28;20063;-72
2022/07/07 13:22:23;;;;;;;10.50;1.98;;;;;;;;;;5020551;28;20056;-73
2022/07/07 13:24:52;;;;;;;8.27;1.77;;;;;;;;;;5016578;28;20091;-73
2022/07/07 13:27:21;;;;;;;9.45;2.03;;;;;;;;;;5016571;28;20513;-72
2022/07/07 13:29:47;;;;;;;8.77;1.70;;;;;;;;;;5003314;28;20093;-74
2022/07/07 13:32:13;;;;;;;13.40;1.70;;;;;;;;;;4980902;28;20042;-72
2022/07/07 13:34:40;;;;;;;11.38;1.85;;;;;;;;;;4997330;28;20045;-73
2022/07/07 13:37:06;;;;;;;9.65;1.80;;;;;;;;;;4996785;28;20073;-77
2022/07/07 13:39:32;;;;;;;15.05;2.30;;;;;;;;;;4996583;28;20037;-77
2022/07/07 13:41:58;;;;;;;8.07;1.60;;;;;;;;;;5016290;28;20037;-75
2022/07/07 13:44:24;;;;;;;8.27;2.13;;;;;;;;;;5022211;28;20025;-74
2022/07/07 13:46:51;;;;;;;9.65;1.70;;;;;;;;;;4982263;28;20080;-71
2022/07/07 13:49:17;;;;;;;6.70;1.60;;;;;;;;;;4997527;28;20053;-76
2022/07/07 13:51:43;;;;;;;5.95;1.45;;;;;;;;;;4990827;28;20367;-76
2022/07/07 13:54:09;;;;;;;8.55;1.60;;;;;;;;;;5001546;28;20046;-76
2022/07/07 13:56:35;;;;;;;5.80;1.30;;;;;;;;;;4993462;28;20447;-71
2022/07/07 13:59:01;;;;;;;9.93;1.73;;;;;;;;;;4997694;28;20454;-73
2022/07/07 14:01:27;;;;;;;4.57;1.15;;;;;;;;;;4993431;28;20130;-73
2022/07/07 14:03:53;;;;;;;6.28;1.60;;;;;;;;;;4982304;28;20050;-72
2022/07/07 14:06:20;;;;;;;6.53;1.30;;;;;;;;;;4982093;28;20073;-72
2022/07/07 14:08:46;;;;;;;7.63;1.30;;;;;;;;;;4989625;28;20092;-75
2022/07/07 14:11:12;;;;;;;6.28;1.55;;;;;;;;;;5012197;28;20064;-73
2022/07/07 14:13:38;;;;;;;12.05;1.70;;;;;;;;;;4994786;28;20053;-78
2022/07/07 14:16:04;;;;;;;9.25;1.30;;;;;;;;;;5011880;28;20042;-73
2022/07/07 14:18:31;;;;;;;7.85;1.77;;;;;;;;;;4996022;28;20029;-72
2022/07/07 14:20:57;;;;;;;10.23;1.92;;;;;;;;;;5014077;28;20044;-72
2022/07/07 14:23:23;;;;;;;10.25;2.17;;;;;;;;;;5012954;28;20494;-77
2022/07/07 14:25:49;;;;;;;6.07;1.30;;;;;;;;;;4980410;28;20105;-77
2022/07/07 14:28:15;;;;;;;6.20;1.20;;;;;;;;;;5017769;28;20039;-74
2022/07/07 14:30:42;;;;;;;6.80;1.10;;;;;;;;;;5031110;28;20128;-75
2022/07/07 14:33:08;;;;;;;9.60;1.50;;;;;;;;;;5011173;28;20052;-76
2022/07/07 14:35:34;;;;;;;5.85;1.52;;;;;;;;;;5019113;28;20129;-76
2022/07/07 14:38:00;;;;;;;7.10;1.30;;;;;;;;;;4998693;28;20152;-77
2022/07/07 14:40:28;;;;;;;6.50;1.30;;;;;;;;;;5009364;28;20045;-76
2022/07/07 14:42:54;;;;;;;10.32;1.40;;;;;;;;;;5019063;28;20068;-74
2022/07/07 14:45:20;;;;;;;3.33;1.10;;;;;;;;;;5019473;28;20041;-71